Strona główna
METAR-TAF:

METAR-TAF

Lotnisko :

Port lotniczy Rutland Południowy Vermont

Rutland, Vermont, Stany Zjednoczone

Szerokość geograficzna: 43-32N, Długość geograficzna: 072-57W, wysokość: 240 m

Aktualna obserwacja pogody

Raport powstał 1 godzina i 3 minut temu, godzina 02:56 UTC
Wiatr 4 kt od południowy wschód
Temperatura 17°C
Wilgotność 94%
Ciśnienie 1019 hPa
Widzialność: 16.1 km
Mało chmury na wysokości 9000 ft

METAR: KRUT 150256Z AUTO 13004KT 10SM FEW090 17/16 A3009 RMK AO2 SLP183 T01720161 51009 $

czas: 23:59 (03:59 UTC)

Prognoza

Raport powstał 4 godziny i 39 minut temu, godzina 23:20 UTC
Prognoza ważna od 15 godzina 00 UTC do 15 godzina 24 UTC
Wiatr 4 kt od południowy wschód
Widzialność: 10 km
Mało chmury na wysokości 9000 ft
Od 15 godzina 1600 UTC
Wiatr 8 kt od wschodnio-południowy wschód
Widzialność: 10 km
Rozproszone chmury na wysokości 4500 ft

TAF: KRUT 142320Z 1500/1524 14004KT P6SM FEW090 FM151600 11008KT P6SM SCT045

Obserwacja i prognoza pogody dla ponad 4000 lotnisk (raport METAR i TAF).

Dostępne stacje oznaczono żółtymi i czerwonymi punktami na mapie.

Najedź kursorem aby zobaczyć nazwę stacji.

Kliknij aby zobaczyć obserwacje i prognozy pogody.

Aby zmienić mapę: kliknij na zielony przycisk z czarnym krzyżykiem, aby powiększyć; na zielony przycisk z myślnikiem, aby pomniejszyć; na zielone strzałki, aby przejść do map sąsiednich.


METAR-TAF: